createdAt,value
2022-11-26T00:01:40.588Z,7.08
2022-11-26T00:04:07.293Z,7.20
2022-11-26T00:06:36.973Z,7.24
2022-11-26T00:09:13.330Z,7.38
2022-11-26T00:11:40.375Z,7.53
2022-11-26T00:14:14.156Z,7.54
2022-11-26T00:16:41.139Z,7.65
2022-11-26T00:19:07.823Z,7.42
2022-11-26T00:21:37.392Z,7.54
2022-11-26T00:24:04.647Z,7.43
2022-11-26T00:26:32.343Z,7.51
2022-11-26T00:29:00.733Z,7.63
2022-11-26T00:31:27.824Z,7.61
2022-11-26T00:33:54.708Z,7.87
2022-11-26T00:36:27.934Z,7.85
2022-11-26T00:39:02.416Z,7.72
2022-11-26T00:41:38.720Z,7.35
2022-11-26T00:44:18.863Z,7.04
2022-11-26T00:46:45.697Z,6.95
2022-11-26T00:49:12.288Z,7.30
2022-11-26T00:51:39.874Z,7.34
2022-11-26T00:54:09.920Z,7.13
2022-11-26T00:56:40.075Z,6.90
2022-11-26T00:59:06.744Z,7.01
2022-11-26T01:01:33.484Z,6.98
2022-11-26T01:04:00.261Z,6.80
2022-11-26T01:06:34.170Z,6.89
2022-11-26T01:09:01.989Z,7.08
2022-11-26T01:11:28.615Z,6.67
2022-11-26T01:13:55.514Z,6.83
2022-11-26T01:16:25.116Z,6.90
2022-11-26T01:18:54.919Z,6.65
2022-11-26T01:21:25.802Z,6.89
2022-11-26T01:23:52.899Z,6.40
2022-11-26T01:26:23.673Z,6.46
2022-11-26T01:28:50.823Z,6.57
2022-11-26T01:31:20.697Z,6.62
2022-11-26T01:33:47.990Z,5.92
2022-11-26T01:36:34.598Z,6.01
2022-11-26T01:39:22.802Z,5.91
2022-11-26T01:41:57.089Z,5.85
2022-11-26T01:44:30.202Z,6.20
2022-11-26T01:46:57.209Z,6.29
2022-11-26T01:49:23.843Z,5.69
2022-11-26T01:52:17.384Z,6.03
2022-11-26T01:54:45.814Z,6.29
2022-11-26T01:57:33.993Z,6.34
2022-11-26T02:00:02.886Z,6.61
2022-11-26T02:02:30.217Z,6.85
2022-11-26T02:05:07.633Z,6.49
2022-11-26T02:07:35.596Z,6.25
2022-11-26T02:10:03.017Z,6.58
2022-11-26T02:12:29.762Z,7.01
2022-11-26T02:14:56.712Z,6.76
2022-11-26T02:17:35.422Z,6.39
2022-11-26T02:20:24.423Z,6.79
2022-11-26T02:23:21.847Z,6.47
2022-11-26T02:26:36.263Z,6.34
2022-11-26T02:29:31.218Z,6.74
2022-11-26T02:32:08.751Z,6.96
2022-11-26T02:34:48.050Z,6.57
2022-11-26T02:37:23.050Z,6.66
2022-11-26T02:39:51.147Z,6.71
2022-11-26T02:42:27.576Z,6.48
2022-11-26T02:44:57.614Z,6.53
2022-11-26T02:47:27.016Z,6.44
2022-11-26T02:49:56.005Z,6.34
2022-11-26T02:52:25.175Z,6.08
2022-11-26T02:54:53.054Z,6.30
2022-11-26T02:57:24.373Z,6.13
2022-11-26T02:59:51.187Z,5.75
2022-11-26T03:02:25.708Z,6.05
2022-11-26T03:04:56.816Z,5.86
2022-11-26T03:07:23.829Z,5.98
2022-11-26T03:09:54.466Z,6.00
2022-11-26T03:12:21.842Z,5.98
2022-11-26T03:14:48.483Z,5.97
2022-11-26T03:17:15.882Z,6.28
2022-11-26T03:19:42.529Z,6.47
2022-11-26T03:22:09.343Z,6.03
2022-11-26T03:24:36.122Z,6.27
2022-11-26T03:27:02.930Z,5.85
2022-11-26T03:29:29.964Z,5.73
2022-11-26T03:31:56.727Z,5.99
2022-11-26T03:34:23.439Z,5.78
2022-11-26T03:36:50.288Z,5.65
2022-11-26T03:39:17.115Z,5.93
2022-11-26T03:41:44.367Z,5.67
2022-11-26T03:44:11.958Z,5.60
2022-11-26T03:46:39.006Z,5.63
2022-11-26T03:49:06.058Z,5.94
2022-11-26T03:51:32.894Z,6.19
2022-11-26T03:53:59.628Z,5.99
2022-11-26T03:56:26.261Z,6.22
2022-11-26T03:58:52.907Z,6.29
2022-11-26T04:01:19.750Z,6.47
2022-11-26T04:03:46.476Z,6.84
2022-11-26T04:06:15.204Z,6.23
2022-11-26T04:08:41.809Z,5.92
2022-11-26T04:11:08.456Z,6.16
2022-11-26T04:13:35.348Z,6.64
2022-11-26T04:16:02.028Z,6.32
2022-11-26T04:18:28.753Z,6.33
2022-11-26T04:20:55.499Z,6.43
2022-11-26T04:23:22.177Z,5.95
2022-11-26T04:25:48.811Z,6.25
2022-11-26T04:28:15.379Z,6.55
2022-11-26T04:30:43.261Z,6.60
2022-11-26T04:33:10.148Z,6.27
2022-11-26T04:35:37.747Z,6.32
2022-11-26T04:38:04.437Z,6.02
2022-11-26T04:40:31.037Z,6.30
2022-11-26T04:42:57.676Z,6.18
2022-11-26T04:45:24.428Z,5.64
2022-11-26T04:47:51.161Z,5.84
2022-11-26T04:50:17.935Z,5.33
2022-11-26T04:52:44.573Z,5.77
2022-11-26T04:55:11.174Z,5.84
2022-11-26T04:57:37.770Z,5.96
2022-11-26T05:00:06.422Z,6.32
2022-11-26T05:02:33.518Z,5.75
2022-11-26T05:05:00.231Z,4.74
2022-11-26T05:07:26.931Z,4.22
2022-11-26T05:09:53.517Z,4.05
2022-11-26T05:12:20.171Z,4.78
2022-11-26T05:14:46.786Z,5.33
2022-11-26T05:17:13.516Z,5.81
2022-11-26T05:19:40.161Z,6.08
2022-11-26T05:22:06.809Z,6.20
2022-11-26T05:24:33.439Z,5.55
2022-11-26T05:27:00.101Z,5.25
2022-11-26T05:29:26.881Z,5.37
2022-11-26T05:31:53.568Z,5.37
2022-11-26T05:34:21.080Z,5.70
2022-11-26T05:36:47.674Z,5.50
2022-11-26T05:39:14.257Z,4.96
2022-11-26T05:41:40.900Z,5.17
2022-11-26T05:44:07.477Z,5.09
2022-11-26T05:46:35.786Z,5.48
2022-11-26T05:49:02.424Z,5.71
2022-11-26T05:51:29.070Z,5.82
2022-11-26T05:53:55.641Z,5.64
2022-11-26T05:56:22.333Z,5.38
2022-11-26T05:58:48.971Z,5.24
2022-11-26T06:01:15.777Z,5.07
2022-11-26T06:03:42.814Z,5.38
2022-11-26T06:06:09.826Z,5.28
2022-11-26T06:08:36.954Z,5.12
2022-11-26T06:11:03.587Z,4.47
2022-11-26T06:13:30.211Z,5.00
2022-11-26T06:15:56.857Z,4.88
2022-11-26T06:18:23.634Z,4.32
2022-11-26T06:20:50.257Z,4.46
2022-11-26T06:23:16.885Z,5.08
2022-11-26T06:25:43.544Z,5.50
2022-11-26T06:28:10.586Z,5.58
2022-11-26T06:30:37.201Z,5.49
2022-11-26T06:33:03.840Z,5.78
2022-11-26T06:35:30.519Z,5.91
2022-11-26T06:37:57.141Z,5.93
2022-11-26T06:40:23.793Z,6.06
2022-11-26T06:42:51.929Z,5.66
2022-11-26T06:45:19.423Z,5.95
2022-11-26T06:47:47.778Z,5.65
2022-11-26T06:50:15.787Z,5.81
2022-11-26T06:52:42.626Z,5.90
2022-11-26T06:55:09.561Z,5.90
2022-11-26T06:57:36.483Z,6.40
2022-11-26T07:00:05.146Z,6.19
2022-11-26T07:02:32.081Z,6.16
2022-11-26T07:04:58.806Z,6.23
2022-11-26T07:07:25.500Z,5.79
2022-11-26T07:09:52.156Z,6.02
2022-11-26T07:12:18.854Z,5.98
2022-11-26T07:14:45.478Z,6.14
2022-11-26T07:17:12.136Z,6.37
2022-11-26T07:19:38.705Z,6.38
2022-11-26T07:22:05.292Z,6.19
2022-11-26T07:24:31.916Z,6.10
2022-11-26T07:26:58.605Z,6.18
2022-11-26T07:29:25.295Z,6.33
2022-11-26T07:31:51.972Z,6.22
2022-11-26T07:34:18.703Z,6.20
2022-11-26T07:36:45.375Z,5.92
2022-11-26T07:39:12.237Z,6.40
2022-11-26T07:41:38.940Z,6.45
2022-11-26T07:44:05.549Z,6.48
2022-11-26T07:46:32.255Z,6.61
2022-11-26T07:48:58.928Z,6.71
2022-11-26T07:51:28.856Z,6.66
2022-11-26T07:53:59.590Z,6.40
2022-11-26T07:56:27.205Z,6.54
2022-11-26T07:58:54.065Z,6.88
2022-11-26T08:01:23.779Z,7.55
2022-11-26T08:03:51.508Z,7.22
2022-11-26T08:06:21.338Z,7.06
2022-11-26T08:08:48.529Z,7.43
2022-11-26T08:11:17.741Z,7.44
2022-11-26T08:13:44.727Z,6.45
2022-11-26T08:16:12.049Z,6.88
2022-11-26T08:18:39.027Z,7.25
2022-11-26T08:21:06.288Z,6.86
2022-11-26T08:23:34.291Z,7.02
2022-11-26T08:26:24.239Z,6.67
2022-11-26T08:28:54.583Z,6.59
2022-11-26T08:31:21.531Z,7.06
2022-11-26T08:33:48.281Z,6.86
2022-11-26T08:36:14.916Z,6.87
2022-11-26T08:38:41.748Z,7.45
2022-11-26T08:41:11.112Z,7.22
2022-11-26T08:44:05.810Z,6.96
2022-11-26T08:46:26.090Z,5.88
2022-11-26T08:48:55.747Z,6.64
2022-11-26T08:51:23.343Z,7.64
2022-11-26T08:53:50.056Z,8.24
2022-11-26T08:56:16.700Z,8.87
2022-11-26T08:58:48.926Z,8.26
2022-11-26T09:01:20.134Z,7.80
2022-11-26T09:03:51.467Z,8.06
2022-11-26T09:06:19.276Z,8.02
2022-11-26T09:09:04.636Z,7.80
2022-11-26T09:11:32.449Z,7.98
2022-11-26T09:13:59.512Z,8.09
2022-11-26T09:16:26.371Z,7.69
2022-11-26T09:18:53.522Z,8.36
2022-11-26T09:21:22.552Z,6.67
2022-11-26T09:23:49.189Z,6.22
2022-11-26T09:26:15.837Z,7.15
2022-11-26T09:28:42.452Z,7.33
2022-11-26T09:31:09.177Z,7.15
2022-11-26T09:33:35.827Z,7.83
2022-11-26T09:36:08.375Z,8.01
2022-11-26T09:38:36.352Z,7.52
2022-11-26T09:41:15.103Z,7.81
2022-11-26T09:44:12.376Z,8.04
2022-11-26T09:47:12.398Z,7.66
2022-11-26T09:49:58.459Z,7.97
2022-11-26T09:52:30.487Z,8.13
2022-11-26T09:55:10.852Z,7.71
2022-11-26T09:57:44.348Z,7.62
2022-11-26T10:00:20.745Z,7.66
2022-11-26T10:02:47.432Z,7.80
2022-11-26T10:05:18.485Z,7.87
2022-11-26T10:08:16.326Z,8.16
2022-11-26T10:11:05.646Z,8.50
2022-11-26T10:13:45.752Z,8.60
2022-11-26T10:16:29.686Z,8.93
2022-11-26T10:19:08.783Z,9.09
2022-11-26T10:21:58.656Z,8.95
2022-11-26T10:24:40.947Z,8.60
2022-11-26T10:27:18.287Z,8.57
2022-11-26T10:29:54.961Z,9.00
2022-11-26T10:32:35.222Z,9.44
2022-11-26T10:35:02.398Z,8.84
2022-11-26T10:37:29.862Z,8.92
2022-11-26T10:40:18.442Z,9.02
2022-11-26T10:43:05.751Z,8.88
2022-11-26T10:45:43.811Z,8.98
2022-11-26T10:48:35.127Z,9.09
2022-11-26T10:51:06.441Z,9.18
2022-11-26T10:53:54.639Z,9.47
2022-11-26T10:56:29.179Z,9.58
2022-11-26T10:59:02.612Z,9.58
2022-11-26T11:01:39.856Z,8.80
2022-11-26T11:04:24.408Z,8.43
2022-11-26T11:06:51.314Z,8.42
2022-11-26T11:09:38.645Z,8.44
2022-11-26T11:12:20.964Z,8.87
2022-11-26T11:14:49.731Z,8.57
2022-11-26T11:17:36.671Z,8.69
2022-11-26T11:20:22.128Z,8.93
2022-11-26T11:22:58.130Z,8.86
2022-11-26T11:25:28.497Z,9.27
2022-11-26T11:28:02.285Z,8.17
2022-11-26T11:30:32.884Z,8.78
2022-11-26T11:33:11.986Z,9.04
2022-11-26T11:35:39.279Z,8.86
2022-11-26T11:38:21.924Z,9.16
2022-11-26T11:40:49.328Z,8.89
2022-11-26T11:43:18.080Z,9.90
2022-11-26T11:45:55.750Z,9.47
2022-11-26T11:48:25.303Z,8.46
2022-11-26T11:51:12.020Z,9.17
2022-11-26T11:53:51.562Z,9.68
2022-11-26T11:56:25.262Z,9.98
2022-11-26T11:59:05.646Z,10.04
2022-11-26T12:02:32.202Z,9.59
2022-11-26T12:05:32.972Z,10.34
2022-11-26T12:08:36.178Z,10.69
2022-11-26T12:11:18.149Z,11.01
2022-11-26T12:13:53.847Z,10.67
2022-11-26T12:16:24.747Z,10.63
2022-11-26T12:19:00.918Z,10.93
2022-11-26T12:22:04.407Z,9.98
2022-11-26T12:24:43.480Z,9.89
2022-11-26T12:27:38.266Z,9.84
2022-11-26T12:30:15.221Z,9.78
2022-11-26T12:33:13.432Z,9.94
2022-11-26T12:35:45.583Z,10.40
2022-11-26T12:38:19.557Z,10.81
2022-11-26T12:40:51.427Z,10.40
2022-11-26T12:43:25.854Z,10.64
2022-11-26T12:45:58.687Z,10.74
2022-11-26T12:48:33.417Z,10.32
2022-11-26T12:51:26.580Z,10.18
2022-11-26T12:54:17.216Z,10.05
2022-11-26T12:57:23.144Z,10.71
2022-11-26T12:59:58.528Z,10.80
2022-11-26T13:02:31.003Z,10.95
2022-11-26T13:05:02.007Z,10.86
2022-11-26T13:07:53.547Z,10.37
2022-11-26T13:10:44.111Z,10.67
2022-11-26T13:13:25.289Z,10.73
2022-11-26T13:16:04.113Z,10.55
2022-11-26T13:18:47.582Z,10.19
2022-11-26T13:21:37.383Z,10.24
2022-11-26T13:24:13.533Z,9.47
2022-11-26T13:27:01.441Z,9.45
2022-11-26T13:29:44.591Z,9.74
2022-11-26T13:32:44.263Z,9.97
2022-11-26T13:35:16.590Z,9.65
2022-11-26T13:38:09.088Z,9.85
2022-11-26T13:41:03.527Z,9.85
2022-11-26T13:43:54.826Z,10.06
2022-11-26T13:46:25.080Z,10.08
2022-11-26T13:48:54.466Z,10.07
2022-11-26T13:51:25.293Z,10.05
2022-11-26T13:54:01.463Z,10.02
2022-11-26T13:56:32.432Z,10.09
2022-11-26T13:59:08.735Z,10.04
2022-11-26T14:01:40.662Z,10.13
2022-11-26T14:04:13.700Z,9.92
2022-11-26T14:07:06.130Z,9.81
2022-11-26T14:09:52.556Z,9.79
2022-11-26T14:12:27.849Z,9.73
2022-11-26T14:14:54.522Z,9.74
2022-11-26T14:17:23.688Z,9.84
2022-11-26T14:19:52.093Z,9.70
2022-11-26T14:22:21.857Z,9.58
2022-11-26T14:24:51.318Z,9.62
2022-11-26T14:27:21.795Z,9.64
2022-11-26T14:30:00.105Z,9.61
2022-11-26T14:32:32.919Z,9.57
2022-11-26T14:35:00.027Z,9.55
2022-11-26T14:37:30.209Z,9.51
2022-11-26T14:40:19.202Z,9.41
2022-11-26T14:42:45.976Z,9.38
2022-11-26T14:45:18.589Z,9.94
2022-11-26T14:47:49.158Z,9.66
2022-11-26T14:50:19.407Z,9.53
2022-11-26T14:52:46.833Z,9.45
2022-11-26T14:55:24.100Z,9.28
2022-11-26T14:57:56.273Z,9.41
2022-11-26T15:00:27.438Z,9.34
2022-11-26T15:02:54.763Z,9.19
2022-11-26T15:05:24.072Z,9.15
2022-11-26T15:08:02.260Z,9.07
2022-11-26T15:10:40.744Z,8.88
2022-11-26T15:13:14.298Z,8.90
2022-11-26T15:15:52.415Z,8.79
2022-11-26T15:18:21.971Z,8.98
2022-11-26T15:20:52.964Z,8.88
2022-11-26T15:23:27.995Z,8.93
2022-11-26T15:25:55.428Z,8.82
2022-11-26T15:28:23.177Z,8.88
2022-11-26T15:30:59.038Z,8.84
2022-11-26T15:33:27.574Z,8.89
2022-11-26T15:35:57.785Z,8.71
2022-11-26T15:38:26.959Z,8.68
2022-11-26T15:41:21.551Z,8.33
2022-11-26T15:43:52.922Z,8.48
2022-11-26T15:46:25.693Z,8.38
2022-11-26T15:49:03.838Z,8.45
2022-11-26T15:51:37.055Z,8.49
2022-11-26T15:54:23.112Z,8.29
2022-11-26T15:57:08.134Z,8.29
2022-11-26T15:59:52.124Z,8.09
2022-11-26T16:02:22.697Z,8.28
2022-11-26T16:04:54.785Z,8.08
2022-11-26T16:07:23.812Z,8.08
2022-11-26T16:10:08.668Z,8.17
2022-11-26T16:12:36.284Z,8.09
2022-11-26T16:15:31.355Z,8.39
2022-11-26T16:17:58.009Z,8.32
2022-11-26T16:20:28.119Z,8.38
2022-11-26T16:22:58.932Z,8.38
2022-11-26T16:25:33.132Z,8.35
2022-11-26T16:28:05.741Z,8.27
2022-11-26T16:30:33.626Z,8.26
2022-11-26T16:33:00.339Z,8.20
2022-11-26T16:35:45.085Z,8.34
2022-11-26T16:38:21.462Z,8.23
2022-11-26T16:40:48.813Z,8.08
2022-11-26T16:43:15.543Z,8.08
2022-11-26T16:45:42.336Z,8.34
2022-11-26T16:48:25.483Z,8.28
2022-11-26T16:50:54.123Z,8.37
2022-11-26T16:53:21.126Z,8.07
2022-11-26T16:55:49.937Z,8.17
2022-11-26T16:58:26.990Z,8.25
2022-11-26T17:00:55.218Z,8.50
2022-11-26T17:03:25.126Z,8.48
2022-11-26T17:05:56.691Z,8.50
2022-11-26T17:08:23.482Z,8.53
2022-11-26T17:10:51.283Z,8.56
2022-11-26T17:13:18.721Z,8.56
2022-11-26T17:15:45.597Z,8.05
2022-11-26T17:18:22.615Z,8.33
2022-11-26T17:20:50.627Z,8.38
2022-11-26T17:23:17.535Z,7.94
2022-11-26T17:25:52.062Z,7.98
2022-11-26T17:28:21.075Z,8.16
2022-11-26T17:30:47.897Z,8.14
2022-11-26T17:33:14.687Z,8.27
2022-11-26T17:35:41.385Z,8.08
2022-11-26T17:38:16.735Z,7.70
2022-11-26T17:40:44.380Z,7.61
2022-11-26T17:43:11.276Z,7.58
2022-11-26T17:45:38.777Z,7.55
2022-11-26T17:48:05.971Z,7.85
2022-11-26T17:50:33.467Z,8.02
2022-11-26T17:53:00.241Z,8.04
2022-11-26T17:55:27.133Z,8.09
2022-11-26T17:57:55.427Z,7.99
2022-11-26T18:00:26.288Z,7.89
2022-11-26T18:02:52.915Z,8.09
2022-11-26T18:05:19.903Z,8.09
2022-11-26T18:07:46.612Z,7.74
2022-11-26T18:10:16.440Z,8.00
2022-11-26T18:12:44.010Z,7.75
2022-11-26T18:15:19.724Z,7.65
2022-11-26T18:17:51.202Z,7.40
2022-11-26T18:20:21.405Z,7.66
2022-11-26T18:22:57.663Z,7.67
2022-11-26T18:25:24.307Z,7.87
2022-11-26T18:27:52.038Z,7.77
2022-11-26T18:30:19.762Z,7.90
2022-11-26T18:32:47.079Z,7.77
2022-11-26T18:35:13.990Z,7.82
2022-11-26T18:37:41.110Z,7.79
2022-11-26T18:40:11.136Z,7.62
2022-11-26T18:42:39.214Z,7.68
2022-11-26T18:45:10.844Z,7.68
2022-11-26T18:47:38.322Z,7.73
2022-11-26T18:50:06.182Z,7.96
2022-11-26T18:52:32.868Z,7.74
2022-11-26T18:55:00.076Z,7.84
2022-11-26T18:57:26.790Z,7.75
2022-11-26T18:59:53.349Z,7.78
2022-11-26T19:02:20.013Z,7.74
2022-11-26T19:04:46.696Z,7.54
2022-11-26T19:07:14.289Z,7.79
2022-11-26T19:09:41.864Z,7.59
2022-11-26T19:12:08.999Z,7.72
2022-11-26T19:14:35.972Z,7.62
2022-11-26T19:17:02.852Z,7.68
2022-11-26T19:19:29.544Z,7.50
2022-11-26T19:22:00.965Z,7.56
2022-11-26T19:24:28.745Z,7.46
2022-11-26T19:26:55.350Z,7.49
2022-11-26T19:29:22.084Z,7.57
2022-11-26T19:31:49.017Z,7.72
2022-11-26T19:34:16.147Z,7.45
2022-11-26T19:36:48.237Z,7.72
2022-11-26T19:39:16.203Z,7.54
2022-11-26T19:41:43.511Z,7.52
2022-11-26T19:44:10.275Z,7.54
2022-11-26T19:46:40.822Z,6.85
2022-11-26T19:49:11.122Z,7.28
2022-11-26T19:51:37.817Z,7.32
2022-11-26T19:54:05.019Z,6.81
2022-11-26T19:56:36.475Z,6.95
2022-11-26T19:59:03.963Z,7.16
2022-11-26T20:01:32.857Z,6.98
2022-11-26T20:04:02.078Z,7.32
2022-11-26T20:06:30.926Z,7.33
2022-11-26T20:09:01.097Z,7.37
2022-11-26T20:11:39.109Z,7.24
2022-11-26T20:14:10.541Z,7.42
2022-11-26T20:16:39.268Z,7.41
2022-11-26T20:19:06.124Z,7.34
2022-11-26T20:21:33.736Z,7.33
2022-11-26T20:24:04.658Z,7.52
2022-11-26T20:26:34.293Z,7.41
2022-11-26T20:29:04.555Z,7.44
2022-11-26T20:31:31.871Z,7.45
2022-11-26T20:34:02.178Z,7.41
2022-11-26T20:36:29.134Z,7.10
2022-11-26T20:38:59.713Z,7.39
2022-11-26T20:41:28.071Z,7.30
2022-11-26T20:43:58.986Z,7.40
2022-11-26T20:46:26.511Z,7.40
2022-11-26T20:48:53.253Z,7.28
2022-11-26T20:51:22.112Z,7.08
2022-11-26T20:53:50.609Z,6.95
2022-11-26T20:56:19.214Z,7.04
2022-11-26T20:58:46.191Z,7.26
2022-11-26T21:01:23.925Z,7.16
2022-11-26T21:03:52.059Z,7.25
2022-11-26T21:06:27.605Z,7.20
2022-11-26T21:09:00.200Z,6.99
2022-11-26T21:11:27.210Z,7.22
2022-11-26T21:13:53.864Z,7.37
2022-11-26T21:16:20.511Z,7.18
2022-11-26T21:18:47.205Z,7.06
2022-11-26T21:21:16.022Z,7.19
2022-11-26T21:23:44.102Z,7.13
2022-11-26T21:26:22.387Z,7.17
2022-11-26T21:28:54.108Z,6.85
2022-11-26T21:31:21.528Z,6.95
2022-11-26T21:33:54.690Z,6.96
2022-11-26T21:36:22.942Z,7.01
2022-11-26T21:38:49.810Z,7.10
2022-11-26T21:41:19.100Z,7.19
2022-11-26T21:43:46.708Z,7.25
2022-11-26T21:46:16.206Z,7.00
2022-11-26T21:48:43.362Z,7.07
2022-11-26T21:51:17.711Z,6.84
2022-11-26T21:53:44.660Z,6.90
2022-11-26T21:56:17.273Z,7.01
2022-11-26T21:58:44.240Z,6.92
2022-11-26T22:01:16.725Z,7.06
2022-11-26T22:03:45.382Z,6.89
2022-11-26T22:06:13.044Z,6.67
2022-11-26T22:08:40.823Z,6.82
2022-11-26T22:11:12.174Z,7.10
2022-11-26T22:13:39.936Z,6.96
2022-11-26T22:16:07.446Z,6.85
2022-11-26T22:18:41.675Z,6.94
2022-11-26T22:21:14.848Z,6.87
2022-11-26T22:23:41.777Z,6.78
2022-11-26T22:26:09.065Z,6.95
2022-11-26T22:28:36.138Z,6.93
2022-11-26T22:31:23.976Z,6.75
2022-11-26T22:33:54.748Z,6.83
2022-11-26T22:36:24.148Z,6.78
2022-11-26T22:38:50.943Z,6.72
2022-11-26T22:41:17.700Z,6.47
2022-11-26T22:43:44.598Z,6.32
2022-11-26T22:46:13.938Z,6.47
2022-11-26T22:48:42.470Z,6.05
2022-11-26T22:51:10.028Z,6.45
2022-11-26T22:53:37.025Z,6.37
2022-11-26T22:56:04.626Z,6.43
2022-11-26T22:58:33.543Z,6.50
2022-11-26T23:01:09.545Z,6.31
2022-11-26T23:03:38.015Z,6.23
2022-11-26T23:06:09.558Z,6.49
2022-11-26T23:08:37.459Z,6.40
2022-11-26T23:11:17.760Z,6.45
2022-11-26T23:13:45.849Z,6.66
2022-11-26T23:16:12.714Z,6.73
2022-11-26T23:18:39.849Z,6.42
2022-11-26T23:21:15.692Z,6.46
2022-11-26T23:23:43.017Z,6.31
2022-11-26T23:26:13.518Z,6.39
2022-11-26T23:28:40.298Z,6.72
2022-11-26T23:31:10.990Z,6.48
2022-11-26T23:33:37.618Z,6.16
2022-11-26T23:36:04.659Z,6.26
2022-11-26T23:38:31.261Z,5.95
2022-11-26T23:41:00.358Z,6.38
2022-11-26T23:43:27.383Z,6.16
2022-11-26T23:46:02.242Z,6.09
2022-11-26T23:48:29.266Z,5.57
2022-11-26T23:50:56.378Z,4.97
2022-11-26T23:53:23.065Z,5.71
2022-11-26T23:55:49.705Z,6.04
2022-11-26T23:58:17.284Z,5.86
